Time;durP1;ratioP1;P1;durP2;ratioP2;P2;SDS_P1;SDS_P2;PMS_P1;PMS_P2;Temp;Humidity;BMP_temperature;BMP_pressure;BME280_temperature;BME280_humidity;BME280_pressure;Samples;Min_cycle;Max_cycle;Signal;HPM_P1;HPM_P2
2022/01/27 05:13:39;;;;;;;2.15;2.05;;;-5.20;99.90;;;;;;4971063;23;20251;-67
2022/01/27 05:16:06;;;;;;;2.38;2.28;;;-5.20;99.90;;;;;;4955139;28;20184;-67
2022/01/27 05:18:33;;;;;;;3.33;2.33;;;-5.20;99.90;;;;;;4955617;29;20200;-67
2022/01/27 05:21:00;;;;;;;2.55;2.45;;;-5.20;99.90;;;;;;4955570;29;20235;-67
2022/01/27 05:23:27;;;;;;;2.83;2.63;;;-5.20;99.90;;;;;;4955423;29;20778;-68
2022/01/27 05:25:54;;;;;;;2.33;2.20;;;-5.20;99.90;;;;;;4955596;29;20230;-68
2022/01/27 05:28:20;;;;;;;2.80;2.60;;;-5.20;99.90;;;;;;4955401;29;20224;-68
2022/01/27 05:30:49;;;;;;;2.33;2.17;;;-5.20;99.90;;;;;;4955472;29;20291;-68
2022/01/27 05:33:16;;;;;;;2.40;2.30;;;-5.20;99.90;;;;;;4955202;29;20307;-69
2022/01/27 05:35:45;;;;;;;2.60;2.40;;;-5.20;99.90;;;;;;4955016;29;20299;-69
2022/01/27 05:38:13;;;;;;;3.67;2.67;;;-5.30;99.90;;;;;;4955877;28;20200;-68
2022/01/27 05:40:40;;;;;;;2.53;2.42;;;-5.30;99.90;;;;;;4955176;29;20204;-67
2022/01/27 05:43:07;;;;;;;2.03;2.00;;;-5.30;99.90;;;;;;4954990;29;20733;-68
2022/01/27 05:45:35;;;;;;;2.13;2.03;;;-5.40;99.90;;;;;;4955344;29;20208;-67
2022/01/27 05:48:04;;;;;;;2.13;1.95;;;-5.40;99.90;;;;;;4954939;29;20707;-68
2022/01/27 05:50:31;;;;;;;3.70;2.63;;;-5.40;99.90;;;;;;4955258;29;20207;-68
2022/01/27 05:52:57;;;;;;;3.20;2.75;;;-5.40;99.90;;;;;;4955012;29;20707;-69
2022/01/27 05:55:24;;;;;;;2.33;2.22;;;-5.40;99.90;;;;;;4955028;29;20210;-69
2022/01/27 05:57:52;;;;;;;2.53;2.33;;;-5.40;99.90;;;;;;4955322;29;20195;-70
2022/01/27 06:00:20;;;;;;;2.53;2.42;;;-5.30;99.90;;;;;;4955287;29;20286;-69
2022/01/27 06:02:46;;;;;;;2.00;1.90;;;-5.30;99.90;;;;;;4954921;29;20228;-69
2022/01/27 06:05:16;;;;;;;2.35;2.20;;;-5.30;99.90;;;;;;4955210;29;20203;-69
2022/01/27 06:07:43;;;;;;;2.80;2.70;;;-5.30;99.90;;;;;;4955576;28;20272;-68
2022/01/27 06:10:10;;;;;;;2.22;2.13;;;-5.30;99.90;;;;;;4955800;29;20287;-68
2022/01/27 06:12:46;;;;;;;2.45;2.35;;;-5.30;99.90;;;;;;4955187;29;20250;-68
2022/01/27 06:15:13;;;;;;;2.50;2.40;;;-5.40;99.90;;;;;;4955482;29;20734;-68
2022/01/27 06:17:40;;;;;;;2.28;2.17;;;-5.40;99.90;;;;;;4955020;29;20258;-68
2022/01/27 06:20:09;;;;;;;2.63;2.50;;;-5.40;99.90;;;;;;4955232;29;20242;-68
2022/01/27 06:22:37;;;;;;;2.42;2.33;;;-5.40;99.90;;;;;;4955054;28;20246;-68
2022/01/27 06:25:05;;;;;;;2.80;2.60;;;-5.40;99.90;;;;;;4954565;29;20762;-68
2022/01/27 06:27:32;;;;;;;2.60;2.42;;;-5.40;99.90;;;;;;4954812;28;20310;-69
2022/01/27 06:29:59;;;;;;;2.22;2.13;;;-5.40;99.90;;;;;;4958142;29;20239;-69
2022/01/27 06:32:25;;;;;;;2.15;2.05;;;-5.40;99.90;;;;;;4958141;29;20597;-69
2022/01/27 06:34:52;;;;;;;2.40;2.30;;;-5.40;99.90;;;;;;4958143;29;20675;-68
2022/01/27 06:37:19;;;;;;;2.22;2.13;;;-5.50;99.90;;;;;;4958165;29;20640;-69
2022/01/27 06:39:47;;;;;;;2.60;2.50;;;-5.50;99.90;;;;;;4958225;29;20587;-69
2022/01/27 06:42:14;;;;;;;2.40;2.20;;;-5.50;99.90;;;;;;4958585;28;20247;-69
2022/01/27 06:44:41;;;;;;;2.38;2.28;;;-5.40;99.90;;;;;;4958241;29;20247;-69
2022/01/27 06:47:08;;;;;;;2.05;1.95;;;-5.40;99.90;;;;;;4958415;29;20211;-69
2022/01/27 06:49:35;;;;;;;2.97;2.80;;;-5.50;99.90;;;;;;4958386;29;20223;-69
2022/01/27 06:52:02;;;;;;;3.95;2.83;;;-5.50;99.90;;;;;;4958291;29;20319;-69
2022/01/27 06:54:29;;;;;;;2.72;2.53;;;-5.50;99.90;;;;;;4959072;29;20290;-70
2022/01/27 06:56:57;;;;;;;3.00;2.75;;;-5.50;99.90;;;;;;4958262;29;20286;-70
2022/01/27 06:59:24;;;;;;;2.58;2.47;;;-5.50;99.90;;;;;;4958547;28;20223;-70
2022/01/27 07:01:50;;;;;;;2.78;2.60;;;-5.50;99.90;;;;;;4958060;29;20306;-70
2022/01/27 07:04:17;;;;;;;2.30;2.20;;;-5.50;99.90;;;;;;4958579;29;20204;-70
2022/01/27 07:06:45;;;;;;;2.38;2.28;;;-5.50;99.90;;;;;;4958311;29;20255;-69
2022/01/27 07:09:11;;;;;;;2.65;2.55;;;-5.50;99.90;;;;;;4958065;29;20294;-70
2022/01/27 07:11:38;;;;;;;2.63;2.53;;;-5.40;99.90;;;;;;4958188;29;20259;-70
2022/01/27 07:14:07;;;;;;;3.20;2.90;;;-5.40;99.90;;;;;;4957513;29;20383;-70
2022/01/27 07:16:34;;;;;;;2.70;2.60;;;-5.40;99.90;;;;;;4957756;29;20280;-70
2022/01/27 07:19:01;;;;;;;2.53;2.40;;;-5.30;99.90;;;;;;4957675;29;20200;-71
2022/01/27 07:21:28;;;;;;;3.10;2.88;;;-5.30;99.90;;;;;;4957634;28;20256;-71
2022/01/27 07:23:55;;;;;;;3.47;2.55;;;-5.20;99.90;;;;;;4957967;29;20267;-71
2022/01/27 07:26:25;;;;;;;3.47;2.88;;;-5.10;99.90;;;;;;4957700;29;20294;-71
2022/01/27 07:28:52;;;;;;;2.42;2.33;;;-5.10;99.90;;;;;;4957491;29;20212;-71
2022/01/27 07:31:21;;;;;;;2.50;2.25;;;-5.00;99.90;;;;;;4957596;29;20188;-71
2022/01/27 07:33:51;;;;;;;2.55;2.45;;;-4.90;99.90;;;;;;4958055;29;20258;-72
2022/01/27 07:36:18;;;;;;;2.58;2.38;;;-4.80;99.90;;;;;;4957891;28;20208;-71
2022/01/27 07:38:45;;;;;;;3.00;2.80;;;-4.70;99.90;;;;;;4957268;28;20200;-71
2022/01/27 07:41:17;;;;;;;2.53;2.40;;;-4.60;99.90;;;;;;4957209;29;20200;-71
2022/01/27 07:43:45;;;;;;;3.00;2.80;;;-4.50;99.90;;;;;;4957496;29;20193;-71
2022/01/27 07:46:13;;;;;;;3.40;3.15;;;-4.30;99.90;;;;;;4957308;29;20204;-71
2022/01/27 07:48:41;;;;;;;3.00;2.70;;;-3.90;99.90;;;;;;4957060;29;20227;-71
2022/01/27 07:51:09;;;;;;;2.88;2.75;;;-3.40;99.90;;;;;;4957284;29;20204;-71
2022/01/27 07:53:37;;;;;;;3.30;3.10;;;-3.00;99.90;;;;;;4957045;29;20692;-71
2022/01/27 07:56:06;;;;;;;2.72;2.53;;;-2.70;99.90;;;;;;4957000;29;20239;-71
2022/01/27 07:58:38;;;;;;;3.83;3.47;;;-2.50;99.90;;;;;;4956945;29;20203;-71
2022/01/27 08:01:07;;;;;;;3.55;3.20;;;-2.30;99.90;;;;;;4956768;29;20636;-71
2022/01/27 08:03:35;;;;;;;5.72;4.07;;;-2.20;99.90;;;;;;4956681;29;20200;-71
2022/01/27 08:06:03;;;;;;;4.32;3.92;;;-2.00;99.90;;;;;;4956978;28;20204;-72
2022/01/27 08:08:30;;;;;;;5.30;3.95;;;-2.00;99.90;;;;;;4956590;29;20696;-72
2022/01/27 08:10:58;;;;;;;4.28;3.88;;;-2.10;99.90;;;;;;4956899;28;20291;-71
2022/01/27 08:13:25;;;;;;;5.68;4.65;;;-2.10;99.90;;;;;;4956450;29;20238;-71
2022/01/27 08:15:52;;;;;;;7.47;4.82;;;-2.10;99.90;;;;;;4956794;29;20290;-71
2022/01/27 08:18:19;;;;;;;6.60;5.18;;;-2.20;99.90;;;;;;4956788;29;20291;-71
2022/01/27 08:20:47;;;;;;;8.20;5.93;;;-2.20;99.90;;;;;;4956829;29;20203;-71
2022/01/27 08:23:16;;;;;;;7.72;5.70;;;-2.30;99.90;;;;;;4956594;28;20230;-70
2022/01/27 08:25:48;;;;;;;12.68;6.90;;;-2.40;99.90;;;;;;4956536;29;20215;-70
2022/01/27 08:28:22;;;;;;;8.00;5.80;;;-2.40;99.90;;;;;;4956253;29;20244;-70
2022/01/27 08:30:51;;;;;;;7.38;5.80;;;-2.30;99.90;;;;;;4957041;29;20199;-70
2022/01/27 08:33:19;;;;;;;6.05;5.45;;;-2.30;99.90;;;;;;4956408;29;20231;-70
2022/01/27 08:35:46;;;;;;;7.43;5.32;;;-2.30;99.90;;;;;;4956375;29;20259;-70
2022/01/27 08:38:14;;;;;;;7.78;5.90;;;-2.20;99.90;;;;;;4955964;29;20638;-70
2022/01/27 08:40:42;;;;;;;7.28;6.15;;;-2.20;99.90;;;;;;4955963;29;20579;-70
2022/01/27 08:43:09;;;;;;;9.50;6.65;;;-2.20;99.90;;;;;;4956319;29;20306;-70
2022/01/27 08:45:38;;;;;;;9.32;6.32;;;-2.30;99.90;;;;;;4956257;29;20291;-69
2022/01/27 08:48:09;;;;;;;8.52;6.07;;;-2.20;99.90;;;;;;4956059;29;20564;-69
2022/01/27 08:50:36;;;;;;;8.43;6.22;;;-2.20;99.90;;;;;;4955635;28;20609;-69
2022/01/27 08:53:03;;;;;;;7.47;6.15;;;-2.10;99.90;;;;;;4955912;29;20270;-70
2022/01/27 08:55:32;;;;;;;10.05;7.10;;;-2.00;99.90;;;;;;4956054;29;20208;-70
2022/01/27 08:57:59;;;;;;;8.60;6.57;;;-1.90;99.90;;;;;;4955717;29;20702;-69
2022/01/27 09:00:26;;;;;;;11.10;6.53;;;-1.90;99.90;;;;;;4955602;29;20295;-69
2022/01/27 09:02:53;;;;;;;9.23;6.78;;;-1.80;99.90;;;;;;4956537;29;20255;-69
2022/01/27 09:05:20;;;;;;;9.13;5.93;;;-1.70;99.90;;;;;;4955877;29;20208;-69
2022/01/27 09:07:47;;;;;;;7.90;6.57;;;-1.60;99.90;;;;;;4955849;29;20206;-69
2022/01/27 09:10:16;;;;;;;11.50;6.90;;;-1.50;99.90;;;;;;4955395;29;20315;-70
2022/01/27 09:12:45;;;;;;;9.77;6.43;;;-1.40;99.90;;;;;;4955337;28;20236;-69
2022/01/27 09:15:12;;;;;;;7.00;5.88;;;-1.20;99.90;;;;;;4955766;29;20231;-69
2022/01/27 09:17:40;;;;;;;10.27;7.03;;;-1.20;99.90;;;;;;4955719;29;20286;-70
2022/01/27 09:20:10;;;;;;;9.15;6.80;;;-1.20;99.90;;;;;;4955599;29;20196;-70
2022/01/27 09:22:38;;;;;;;10.43;7.50;;;-1.10;99.90;;;;;;4955247;28;20307;-70
2022/01/27 09:25:13;;;;;;;7.68;6.88;;;-1.00;99.90;;;;;;4955501;29;20628;-70
2022/01/27 09:27:42;;;;;;;9.40;6.93;;;-0.90;99.90;;;;;;4955253;29;20595;-70
2022/01/27 09:30:13;;;;;;;11.45;7.63;;;-0.80;99.90;;;;;;4955111;29;20770;-70
2022/01/27 09:32:39;;;;;;;11.30;7.35;;;-0.80;99.90;;;;;;4955688;29;20255;-70
2022/01/27 09:35:07;;;;;;;9.27;6.78;;;-0.70;99.90;;;;;;4955392;29;20279;-70
2022/01/27 09:37:34;;;;;;;7.53;6.65;;;-0.70;99.90;;;;;;4955476;29;20292;-70
2022/01/27 09:40:01;;;;;;;9.98;6.78;;;-0.60;99.90;;;;;;4955484;29;20282;-70
2022/01/27 09:42:30;;;;;;;10.23;6.25;;;-0.50;99.90;;;;;;4955260;29;20227;-70
2022/01/27 09:45:02;;;;;;;8.65;6.10;;;-0.40;99.90;;;;;;4955248;29;20208;-70
2022/01/27 09:47:33;;;;;;;8.65;6.75;;;-0.30;99.90;;;;;;4955312;29;20224;-71
2022/01/27 09:50:19;;;;;;;8.02;6.55;;;-0.20;99.90;;;;;;4954998;28;20734;-71
2022/01/27 09:52:46;;;;;;;9.20;6.28;;;-0.20;99.90;;;;;;4955859;28;20239;-70
2022/01/27 09:55:13;;;;;;;11.10;6.88;;;-0.10;99.90;;;;;;4954890;29;20751;-70
2022/01/27 09:57:40;;;;;;;8.23;7.03;;;-0.10;99.90;;;;;;4954994;29;20207;-70
2022/01/27 10:00:08;;;;;;;9.38;6.13;;;-0.10;99.90;;;;;;4955292;29;20199;-70
2022/01/27 10:02:36;;;;;;;7.05;5.78;;;0.10;99.90;;;;;;4956855;28;20310;-70
2022/01/27 10:05:04;;;;;;;7.53;5.47;;;0.10;99.90;;;;;;4958870;29;20210;-70
2022/01/27 10:07:39;;;;;;;7.63;5.70;;;0.20;99.90;;;;;;4959145;29;20208;-71
2022/01/27 10:10:08;;;;;;;6.05;5.45;;;0.30;99.90;;;;;;4959071;29;20238;-70
2022/01/27 10:12:40;;;;;;;7.32;5.53;;;0.30;99.90;;;;;;4958538;29;20726;-70
2022/01/27 10:15:13;;;;;;;5.75;4.93;;;0.30;99.90;;;;;;4958996;29;20577;-70
2022/01/27 10:18:07;;;;;;;7.25;5.20;;;0.40;99.90;;;;;;4958984;29;20184;-71
2022/01/27 10:20:35;;;;;;;4.85;4.38;;;0.40;99.90;;;;;;4958828;29;20215;-70
2022/01/27 10:23:16;;;;;;;5.50;5.00;;;0.50;99.90;;;;;;4958662;29;20224;-70
2022/01/27 10:25:51;;;;;;;4.90;4.40;;;0.60;99.90;;;;;;4958749;29;20275;-70
2022/01/27 10:28:34;;;;;;;5.60;4.70;;;0.70;99.90;;;;;;4958428;29;20637;-70
2022/01/27 10:31:04;;;;;;;5.65;5.00;;;0.70;99.90;;;;;;4958573;29;20180;-71
2022/01/27 10:33:48;;;;;;;6.55;4.95;;;0.80;99.90;;;;;;4958803;29;20255;-71
2022/01/27 10:36:17;;;;;;;6.10;5.30;;;0.80;99.90;;;;;;4958419;29;20594;-71
2022/01/27 10:38:44;;;;;;;6.85;5.22;;;0.90;99.90;;;;;;4958544;29;20206;-70
2022/01/27 10:41:11;;;;;;;7.93;5.88;;;1.00;99.90;;;;;;4958504;29;20203;-71
2022/01/27 10:43:40;;;;;;;9.68;4.95;;;1.00;99.90;;;;;;4958475;29;20223;-71
2022/01/27 10:46:11;;;;;;;6.05;4.75;;;1.00;99.90;;;;;;4958197;29;20668;-71
2022/01/27 10:48:44;;;;;;;7.43;4.78;;;1.10;99.90;;;;;;4959094;29;20188;-70
2022/01/27 10:51:20;;;;;;;7.50;5.65;;;1.20;99.90;;;;;;4958727;29;20659;-69
2022/01/27 10:53:57;;;;;;;14.20;7.70;;;1.30;99.90;;;;;;4958623;29;20188;-70
2022/01/27 10:56:26;;;;;;;11.73;8.25;;;1.30;99.90;;;;;;4958481;28;20195;-70
2022/01/27 10:58:54;;;;;;;11.52;6.72;;;1.30;99.90;;;;;;4958768;29;20234;-69
2022/01/27 11:01:25;;;;;;;10.98;7.00;;;1.30;99.90;;;;;;4957755;29;20214;-70
2022/01/27 11:03:53;;;;;;;8.30;6.38;;;1.40;99.90;;;;;;4958361;28;20207;-70
2022/01/27 11:06:25;;;;;;;9.35;6.43;;;1.50;99.90;;;;;;4957991;29;20214;-70
2022/01/27 11:08:54;;;;;;;9.60;6.68;;;1.60;99.90;;;;;;4957682;29;20531;-70
2022/01/27 11:11:23;;;;;;;8.35;5.70;;;1.60;99.90;;;;;;4957986;29;20210;-71
2022/01/27 11:13:52;;;;;;;7.32;5.72;;;1.60;99.90;;;;;;4957064;28;20222;-70
2022/01/27 11:16:27;;;;;;;8.15;5.57;;;1.60;99.90;;;;;;4958629;29;20235;-70
2022/01/27 11:19:00;;;;;;;8.80;5.47;;;1.70;99.90;;;;;;4960693;29;20239;-68
2022/01/27 11:21:35;;;;;;;5.65;5.10;;;1.80;99.90;;;;;;4960510;28;20232;-69
2022/01/27 11:24:07;;;;;;;6.03;5.07;;;1.90;99.90;;;;;;4961727;29;20319;-68
2022/01/27 11:26:40;;;;;;;5.05;4.40;;;2.00;99.90;;;;;;4961324;29;20248;-69
2022/01/27 11:29:09;;;;;;;6.85;5.35;;;2.10;99.90;;;;;;4961161;29;20230;-71
2022/01/27 11:32:05;;;;;;;4.88;4.30;;;2.10;99.90;;;;;;4960821;29;20216;-69
2022/01/27 11:34:50;;;;;;;8.07;5.43;;;2.10;99.90;;;;;;4961026;28;20200;-69
2022/01/27 11:37:31;;;;;;;7.38;5.60;;;2.00;99.90;;;;;;4960816;29;20224;-68
2022/01/27 11:40:02;;;;;;;9.45;5.95;;;2.10;99.90;;;;;;4961655;29;20188;-68
2022/01/27 11:43:03;;;;;;;10.57;6.38;;;2.10;99.90;;;;;;4961907;29;20591;-67
2022/01/27 11:45:38;;;;;;;10.05;6.10;;;2.10;99.90;;;;;;4961193;28;20208;-70
2022/01/27 11:48:10;;;;;;;12.50;6.75;;;2.10;99.90;;;;;;4962482;29;20234;-71
2022/01/27 11:50:49;;;;;;;12.13;6.38;;;2.20;99.90;;;;;;4960123;28;20247;-71
2022/01/27 11:53:35;;;;;;;8.88;6.13;;;2.30;99.90;;;;;;4957495;28;20230;-71
2022/01/27 11:56:04;;;;;;;10.52;6.47;;;2.20;99.90;;;;;;4957235;29;20746;-71
2022/01/27 11:58:31;;;;;;;6.85;5.60;;;2.30;99.90;;;;;;4957608;29;20299;-71
2022/01/27 12:01:13;;;;;;;7.25;5.53;;;2.20;99.90;;;;;;4957489;29;20200;-71
2022/01/27 12:03:41;;;;;;;7.85;5.80;;;2.30;99.90;;;;;;4957753;28;20271;-71
2022/01/27 12:06:29;;;;;;;10.15;6.15;;;2.30;96.30;;;;;;4956970;28;20578;-71
2022/01/27 12:09:31;;;;;;;8.48;6.53;;;2.30;96.50;;;;;;4953810;28;20642;-72
2022/01/27 12:12:00;;;;;;;9.55;6.80;;;2.30;99.10;;;;;;4956896;28;20271;-71
2022/01/27 12:14:49;;;;;;;8.93;6.40;;;2.20;98.90;;;;;;4956662;29;20215;-71
2022/01/27 12:17:26;;;;;;;8.02;5.93;;;2.20;99.90;;;;;;4956562;28;20243;-71
2022/01/27 12:19:54;;;;;;;9.00;5.60;;;2.20;99.90;;;;;;4956639;29;20208;-71
2022/01/27 12:22:23;;;;;;;7.45;5.65;;;2.20;99.90;;;;;;4956891;29;20224;-71
2022/01/27 12:24:56;;;;;;;5.95;5.05;;;2.30;99.80;;;;;;4956538;28;20304;-71
2022/01/27 12:27:24;;;;;;;6.30;5.22;;;2.30;99.20;;;;;;4955971;29;20592;-71
2022/01/27 12:29:52;;;;;;;5.32;4.82;;;2.40;99.90;;;;;;4956602;29;20223;-71
2022/01/27 12:32:21;;;;;;;5.97;4.80;;;2.40;99.90;;;;;;4956675;29;20228;-71
2022/01/27 12:34:50;;;;;;;8.27;5.65;;;2.40;99.90;;;;;;4956520;29;20250;-70
2022/01/27 12:37:20;;;;;;;8.65;6.30;;;2.40;99.90;;;;;;4956457;29;20203;-71
2022/01/27 12:39:52;;;;;;;14.30;8.20;;;2.30;99.90;;;;;;4956543;29;20185;-71
2022/01/27 12:42:24;;;;;;;15.65;8.57;;;2.30;99.90;;;;;;4956162;29;20327;-70
2022/01/27 12:44:57;;;;;;;11.73;7.78;;;2.20;99.90;;;;;;4956505;29;20207;-71
2022/01/27 12:47:24;;;;;;;14.00;8.77;;;2.20;99.90;;;;;;4956094;29;20645;-71
2022/01/27 12:50:02;;;;;;;13.13;8.02;;;2.20;99.90;;;;;;4955980;28;20216;-70
2022/01/27 12:52:31;;;;;;;11.65;7.75;;;2.20;99.90;;;;;;4956297;28;20314;-71
2022/01/27 12:54:58;;;;;;;11.93;7.22;;;2.20;99.90;;;;;;4956168;29;20236;-71
2022/01/27 12:57:28;;;;;;;13.40;8.38;;;2.20;99.90;;;;;;4956117;29;20211;-71
2022/01/27 12:59:57;;;;;;;10.23;6.93;;;2.20;99.90;;;;;;4956082;29;20280;-71
2022/01/27 13:02:25;;;;;;;11.38;6.97;;;2.20;99.90;;;;;;4955710;28;20711;-71
2022/01/27 13:04:55;;;;;;;11.77;7.63;;;2.10;99.90;;;;;;4955675;29;20210;-71
2022/01/27 13:07:23;;;;;;;17.05;8.63;;;2.00;99.90;;;;;;4955942;29;20230;-71
2022/01/27 13:09:59;;;;;;;17.60;9.43;;;2.00;99.90;;;;;;4955419;29;20771;-71
2022/01/27 13:12:33;;;;;;;14.45;8.85;;;1.80;99.90;;;;;;4955699;29;20255;-71
2022/01/27 13:15:06;;;;;;;14.77;9.02;;;1.80;99.90;;;;;;4955809;29;20192;-71
2022/01/27 13:17:40;;;;;;;13.60;8.60;;;1.70;99.90;;;;;;4955880;28;20216;-71
2022/01/27 13:20:21;;;;;;;13.50;8.05;;;1.70;99.90;;;;;;4955454;29;20667;-71
2022/01/27 13:22:56;;;;;;;14.60;7.38;;;1.70;99.90;;;;;;4955581;28;20232;-71
2022/01/27 13:25:24;;;;;;;12.48;7.90;;;1.70;99.90;;;;;;4955142;29;20286;-71
2022/01/27 13:28:10;;;;;;;12.27;7.25;;;1.70;99.90;;;;;;4955308;29;20243;-71
2022/01/27 13:30:37;;;;;;;12.95;7.32;;;1.70;99.90;;;;;;4955532;29;20311;-72
2022/01/27 13:33:09;;;;;;;11.95;7.15;;;1.70;99.90;;;;;;4954253;29;20319;-72
2022/01/27 13:35:37;;;;;;;10.10;6.72;;;1.70;99.90;;;;;;4956134;28;20588;-72
2022/01/27 13:38:18;;;;;;;11.38;6.63;;;1.70;99.90;;;;;;4959233;28;20224;-72
2022/01/27 13:43:42;;;;;;;11.40;6.47;;;1.80;99.90;;;;;;4959998;29;20223;-71
2022/01/27 13:46:10;;;;;;;9.35;6.43;;;1.70;99.90;;;;;;4958013;29;20203;-71
2022/01/27 13:48:44;;;;;;;9.23;5.90;;;1.70;99.90;;;;;;4958103;29;20213;-69
2022/01/27 13:51:19;;;;;;;8.82;5.93;;;1.80;99.90;;;;;;4956711;29;20234;-69
2022/01/27 13:54:00;;;;;;;7.07;5.03;;;1.80;99.90;;;;;;4958609;29;20203;-71
2022/01/27 13:56:39;;;;;;;6.13;4.32;;;1.80;99.90;;;;;;4958735;29;20286;-71
2022/01/27 13:59:14;;;;;;;5.45;4.30;;;1.80;99.90;;;;;;4958364;29;20569;-72
2022/01/27 14:01:42;;;;;;;5.72;4.82;;;1.70;99.90;;;;;;4959478;29;20560;-71
2022/01/27 14:04:09;;;;;;;5.00;4.20;;;1.70;99.90;;;;;;4959553;29;20204;-71
2022/01/27 14:06:57;;;;;;;5.30;3.85;;;1.70;99.90;;;;;;4958377;29;20299;-71
2022/01/27 14:09:29;;;;;;;4.50;4.07;;;1.70;99.90;;;;;;4958640;29;20620;-69
2022/01/27 14:12:00;;;;;;;4.40;3.83;;;1.60;99.90;;;;;;4958504;28;20260;-70
2022/01/27 14:14:49;;;;;;;5.38;4.25;;;1.60;99.90;;;;;;4958954;28;20344;-69
2022/01/27 14:17:24;;;;;;;5.07;4.40;;;1.50;99.90;;;;;;4955248;29;20184;-69
2022/01/27 14:19:51;;;;;;;5.57;4.20;;;1.50;99.90;;;;;;4955216;29;20275;-69
2022/01/27 14:22:20;;;;;;;4.30;3.90;;;1.50;99.90;;;;;;4954904;28;20342;-70
2022/01/27 14:25:04;;;;;;;4.85;3.90;;;1.50;99.90;;;;;;4955825;28;20200;-69
2022/01/27 14:27:36;;;;;;;4.25;3.85;;;1.40;99.90;;;;;;4954709;29;20185;-70
2022/01/27 14:30:07;;;;;;;4.47;4.05;;;1.40;99.90;;;;;;4954900;29;20219;-70
2022/01/27 14:32:35;;;;;;;4.35;3.83;;;1.30;99.90;;;;;;4954959;29;20220;-70
2022/01/27 14:35:06;;;;;;;5.03;3.55;;;1.30;99.90;;;;;;4954619;29;20214;-70
2022/01/27 14:37:34;;;;;;;3.85;3.45;;;1.30;99.90;;;;;;4954982;29;20217;-70
2022/01/27 14:40:01;;;;;;;4.15;3.60;;;1.30;99.90;;;;;;4954920;28;20204;-70
2022/01/27 14:42:28;;;;;;;4.80;3.45;;;1.30;99.90;;;;;;4954930;29;20230;-70
2022/01/27 14:44:55;;;;;;;4.18;3.22;;;1.30;99.90;;;;;;4954987;29;20220;-70
2022/01/27 14:47:23;;;;;;;3.20;3.00;;;1.30;99.90;;;;;;4954902;29;20258;-70
2022/01/27 14:49:52;;;;;;;3.67;3.10;;;1.30;99.90;;;;;;4956915;28;20214;-70
2022/01/27 14:52:23;;;;;;;3.25;3.05;;;1.30;99.90;;;;;;4958061;29;20223;-70
2022/01/27 14:54:50;;;;;;;3.22;2.92;;;1.20;99.90;;;;;;4958275;29;20593;-70
2022/01/27 14:57:17;;;;;;;3.00;2.72;;;1.20;99.90;;;;;;4958471;29;20192;-70
2022/01/27 14:59:44;;;;;;;2.70;2.50;;;1.20;99.90;;;;;;4958545;29;20603;-70
2022/01/27 15:02:11;;;;;;;2.70;2.53;;;1.20;99.90;;;;;;4957930;29;20584;-70
2022/01/27 15:04:39;;;;;;;3.55;3.22;;;1.20;99.90;;;;;;4958214;29;20386;-70
2022/01/27 15:07:06;;;;;;;2.38;2.28;;;1.20;99.90;;;;;;4958006;29;20238;-70
2022/01/27 15:09:33;;;;;;;2.97;2.78;;;1.20;99.90;;;;;;4958191;29;20290;-70
2022/01/27 15:12:00;;;;;;;2.72;2.45;;;1.10;99.90;;;;;;4957867;29;20239;-70
2022/01/27 15:19:57;;;;;;;2.88;2.67;;;1.10;99.90;;;;;;4958131;29;20195;-70
2022/01/27 15:22:27;;;;;;;3.10;2.80;;;1.10;99.90;;;;;;4957878;29;20228;-70
2022/01/27 15:24:55;;;;;;;3.28;3.03;;;1.00;99.90;;;;;;4957945;29;20208;-70
2022/01/27 15:27:22;;;;;;;2.85;2.65;;;1.00;99.90;;;;;;4957828;29;20231;-70
2022/01/27 15:29:49;;;;;;;3.28;3.03;;;1.00;99.90;;;;;;4957767;29;20211;-70
2022/01/27 15:32:19;;;;;;;3.03;2.83;;;0.90;99.90;;;;;;4957328;28;20671;-70
2022/01/27 15:34:46;;;;;;;2.53;2.35;;;0.90;99.90;;;;;;4957628;29;20208;-70
2022/01/27 15:37:15;;;;;;;2.78;2.58;;;0.90;99.90;;;;;;4957534;29;20660;-70
2022/01/27 15:39:48;;;;;;;2.83;2.63;;;0.80;99.90;;;;;;4957306;29;20622;-70
2022/01/27 15:42:15;;;;;;;2.45;2.35;;;0.80;99.90;;;;;;4957453;29;20235;-70
2022/01/27 15:44:44;;;;;;;3.00;2.80;;;0.80;99.90;;;;;;4957417;29;20200;-70
2022/01/27 15:47:12;;;;;;;2.58;2.47;;;0.70;99.90;;;;;;4957247;29;20723;-70
2022/01/27 15:49:39;;;;;;;2.13;2.03;;;0.70;99.90;;;;;;4957444;29;20585;-70
2022/01/27 15:52:06;;;;;;;1.98;1.88;;;0.70;99.90;;;;;;4957351;29;20232;-70
2022/01/27 15:54:35;;;;;;;2.58;2.47;;;0.70;99.90;;;;;;4957084;29;20612;-70
2022/01/27 15:57:05;;;;;;;2.78;2.58;;;0.60;99.90;;;;;;4957395;29;20204;-70
2022/01/27 15:59:31;;;;;;;2.15;2.05;;;0.60;99.90;;;;;;4957056;28;20212;-70
2022/01/27 16:01:58;;;;;;;2.60;2.40;;;0.50;99.90;;;;;;4956770;29;20872;-70
2022/01/27 16:04:25;;;;;;;2.42;2.22;;;0.50;99.90;;;;;;4956882;29;20652;-70
2022/01/27 16:06:52;;;;;;;1.90;1.80;;;0.40;99.90;;;;;;4957084;29;20567;-69
2022/01/27 16:09:20;;;;;;;2.08;1.98;;;0.40;99.90;;;;;;4956822;29;20287;-69
2022/01/27 16:11:48;;;;;;;2.17;2.08;;;0.30;99.90;;;;;;4956452;29;20719;-71
2022/01/27 16:14:15;;;;;;;2.00;1.90;;;0.20;99.90;;;;;;4956795;28;20212;-70
2022/01/27 16:16:42;;;;;;;1.90;1.80;;;0.10;99.90;;;;;;4957138;29;20206;-70
2022/01/27 16:19:09;;;;;;;2.20;2.10;;;0.10;99.90;;;;;;4956530;29;20279;-70
2022/01/27 16:21:37;;;;;;;2.83;2.63;;;0.00;99.90;;;;;;4956848;29;20579;-70
2022/01/27 16:24:04;;;;;;;2.13;2.03;;;-0.10;99.90;;;;;;4956894;29;20649;-70
2022/01/27 16:26:31;;;;;;;2.50;2.30;;;-0.10;99.90;;;;;;4956805;29;20211;-70
2022/01/27 16:28:59;;;;;;;2.17;2.08;;;-0.10;99.90;;;;;;4956721;29;20208;-70
2022/01/27 16:31:26;;;;;;;2.63;2.42;;;-0.10;99.90;;;;;;4956561;29;20224;-70
2022/01/27 16:33:52;;;;;;;2.80;2.60;;;-0.20;99.90;;;;;;4956409;29;20199;-70
2022/01/27 16:36:19;;;;;;;2.20;1.98;;;-0.20;99.90;;;;;;4956454;29;20644;-70
2022/01/27 16:38:46;;;;;;;2.60;2.50;;;-0.20;99.90;;;;;;4956161;29;20581;-69
2022/01/27 16:41:13;;;;;;;2.60;2.40;;;-0.20;99.90;;;;;;4956339;29;20200;-70
2022/01/27 16:43:40;;;;;;;2.70;2.50;;;-0.20;99.90;;;;;;4956539;29;20295;-71
2022/01/27 16:46:09;;;;;;;2.63;2.50;;;-0.20;99.90;;;;;;4956945;29;20295;-70
2022/01/27 16:48:37;;;;;;;2.55;2.45;;;-0.30;99.90;;;;;;4957468;28;20191;-68
2022/01/27 16:51:04;;;;;;;2.85;2.65;;;-0.30;99.90;;;;;;4956484;29;20774;-71
2022/01/27 16:53:32;;;;;;;2.58;2.45;;;-0.40;99.90;;;;;;4956689;29;20322;-70
2022/01/27 16:56:00;;;;;;;2.40;2.30;;;-0.40;99.90;;;;;;4960982;29;20214;-72
2022/01/27 16:58:27;;;;;;;2.58;2.33;;;-0.40;99.90;;;;;;4958333;28;20691;-69
2022/01/27 17:00:54;;;;;;;2.58;2.42;;;-0.50;99.90;;;;;;4956149;28;20200;-69
2022/01/27 17:03:22;;;;;;;2.30;2.20;;;-0.50;99.90;;;;;;4955672;29;20224;-68
2022/01/27 17:05:49;;;;;;;3.17;2.58;;;-0.50;99.90;;;;;;4955518;29;20743;-68
2022/01/27 17:08:20;;;;;;;2.72;2.55;;;-0.60;99.90;;;;;;4955794;29;20211;-68
2022/01/27 17:10:47;;;;;;;2.55;2.35;;;-0.60;99.90;;;;;;4955702;29;20302;-68
2022/01/27 17:13:14;;;;;;;2.67;2.50;;;-0.60;99.90;;;;;;4955199;28;20264;-68
2022/01/27 17:15:42;;;;;;;2.25;2.15;;;-0.50;99.90;;;;;;4955330;29;20693;-68
2022/01/27 17:18:11;;;;;;;2.58;2.38;;;-0.40;99.90;;;;;;4955675;29;20204;-68
2022/01/27 17:20:39;;;;;;;3.65;2.88;;;-0.40;99.90;;;;;;4955640;29;20208;-69
2022/01/27 17:23:07;;;;;;;2.58;2.47;;;-0.30;99.90;;;;;;4955357;29;20220;-69
2022/01/27 17:25:34;;;;;;;3.20;2.90;;;-0.30;99.90;;;;;;4955709;29;20211;-69
2022/01/27 17:28:01;;;;;;;2.60;2.40;;;-0.20;99.90;;;;;;4955553;29;20204;-69
2022/01/27 17:30:28;;;;;;;2.63;2.35;;;-0.10;99.90;;;;;;4955493;29;20291;-69
2022/01/27 17:32:55;;;;;;;3.53;3.22;;;-0.10;99.90;;;;;;4955410;28;20319;-71
2022/01/27 17:35:22;;;;;;;3.38;3.08;;;0.00;99.90;;;;;;4955374;29;20204;-70
2022/01/27 17:37:51;;;;;;;2.88;2.67;;;0.10;99.90;;;;;;4955683;29;20214;-70
2022/01/27 17:40:20;;;;;;;2.83;2.63;;;0.10;99.90;;;;;;4955525;29;20290;-70
2022/01/27 17:42:53;;;;;;;2.90;2.70;;;0.20;99.90;;;;;;4955398;28;20231;-69
2022/01/27 17:45:22;;;;;;;3.03;2.75;;;0.30;99.90;;;;;;4955361;29;20557;-69
2022/01/27 17:47:52;;;;;;;4.00;3.15;;;0.30;99.90;;;;;;4955434;29;20207;-69
2022/01/27 17:50:20;;;;;;;3.58;3.17;;;0.40;99.90;;;;;;4955649;29;20299;-67
2022/01/27 17:52:47;;;;;;;3.95;3.35;;;0.40;99.90;;;;;;4955107;28;20307;-68
2022/01/27 17:55:16;;;;;;;2.78;2.58;;;0.50;99.90;;;;;;4954933;29;20564;-69
2022/01/27 17:57:43;;;;;;;3.13;2.58;;;0.60;99.90;;;;;;4955256;29;20234;-68
2022/01/27 18:00:13;;;;;;;3.30;2.70;;;0.60;99.90;;;;;;4955205;29;20290;-69
2022/01/27 18:02:41;;;;;;;3.28;2.97;;;0.60;99.90;;;;;;4954768;28;20303;-69
2022/01/27 18:05:09;;;;;;;3.40;2.92;;;0.60;99.90;;;;;;4954954;29;20582;-70
2022/01/27 18:07:37;;;;;;;3.47;3.17;;;0.60;99.90;;;;;;4955182;28;20703;-69
2022/01/27 18:10:05;;;;;;;3.25;3.05;;;0.60;99.90;;;;;;4955230;29;20628;-69
2022/01/27 18:12:34;;;;;;;3.92;3.25;;;0.60;99.90;;;;;;4954820;28;20234;-69
2022/01/27 18:15:00;;;;;;;2.83;2.63;;;0.60;99.90;;;;;;4955334;29;20184;-69
2022/01/27 18:17:28;;;;;;;3.13;2.92;;;0.60;99.90;;;;;;4955170;29;20279;-69
2022/01/27 18:19:55;;;;;;;3.40;3.10;;;0.70;99.90;;;;;;4957819;29;20210;-69
2022/01/27 18:22:23;;;;;;;3.08;2.88;;;0.70;99.90;;;;;;4958083;28;20263;-69
2022/01/27 18:24:50;;;;;;;2.90;2.70;;;0.70;99.90;;;;;;4962496;28;20290;-69